Time;durP1;ratioP1;P1;durP2;ratioP2;P2;SDS_P1;SDS_P2;PMS_P1;PMS_P2;Temp;Humidity;BMP_temperature;BMP_pressure;BME280_temperature;BME280_humidity;BME280_pressure;Samples;Min_cycle;Max_cycle;Signal;HPM_P1;HPM_P2
2022/07/14 00:00:00;;;;;;;;;;;24.70;80.60;;;;;;5085763;28;19924;-72
2022/07/14 00:02:26;;;;;;;;;;;24.90;80.40;;;;;;5082613;28;19924;-72
2022/07/14 00:04:52;;;;;;;;;;;25.10;80.80;;;;;;5096602;28;19924;-72
2022/07/14 00:07:17;;;;;;;;;;;24.90;80.50;;;;;;5096714;28;19966;-72
2022/07/14 00:09:43;;;;;;;;;;;24.70;80.50;;;;;;5096730;28;19920;-72
2022/07/14 00:12:08;;;;;;;;;;;24.90;80.60;;;;;;5096011;28;20090;-72
2022/07/14 00:14:34;;;;;;;;;;;25.00;80.70;;;;;;5095527;28;20436;-72
2022/07/14 00:17:00;;;;;;;;;;;24.80;80.50;;;;;;5095426;28;20293;-72
2022/07/14 00:19:26;;;;;;;;;;;25.00;80.50;;;;;;5096584;28;19920;-71
2022/07/14 00:21:52;;;;;;;;;;;24.70;80.50;;;;;;5061792;28;19920;-72
2022/07/14 00:24:18;;;;;;;;;;;24.70;80.40;;;;;;5074570;28;20003;-72
2022/07/14 00:26:44;;;;;;;;;;;24.70;80.40;;;;;;5071836;28;19977;-72
2022/07/14 00:29:09;;;;;;;;;;;24.70;80.40;;;;;;5096246;28;19990;-72
2022/07/14 00:31:35;;;;;;;;;;;24.80;80.40;;;;;;5095870;28;20358;-72
2022/07/14 00:34:01;;;;;;;;;;;24.90;80.50;;;;;;5096498;28;19943;-72
2022/07/14 00:36:27;;;;;;;;;;;25.00;80.50;;;;;;5095760;28;20385;-71
2022/07/14 00:38:53;;;;;;;;;;;24.80;80.70;;;;;;5094989;28;19920;-73
2022/07/14 00:41:19;;;;;;;;;;;24.80;80.70;;;;;;5095556;28;19920;-72
2022/07/14 00:43:45;;;;;;;;;;;25.00;80.60;;;;;;5080313;28;20304;-72
2022/07/14 00:46:10;;;;;;;;;;;25.00;80.30;;;;;;5096925;28;19924;-72
2022/07/14 00:48:36;;;;;;;;;;;24.70;80.50;;;;;;5095833;28;19920;-72
2022/07/14 00:51:02;;;;;;;;;;;24.90;80.40;;;;;;5061941;28;19926;-71
2022/07/14 00:53:27;;;;;;;;;;;24.80;80.60;;;;;;5093866;28;19959;-72
2022/07/14 00:55:53;;;;;;;;;;;24.80;80.50;;;;;;5075711;28;19934;-72
2022/07/14 00:58:18;;;;;;;;;;;24.60;80.30;;;;;;5071194;28;19985;-72
2022/07/14 01:00:44;;;;;;;;;;;24.60;80.40;;;;;;5078491;28;19924;-72
2022/07/14 01:03:10;;;;;;;;;;;24.70;80.30;;;;;;5076635;28;19923;-70
2022/07/14 01:05:36;;;;;;;;;;;24.70;80.40;;;;;;5089694;28;20301;-72
2022/07/14 01:08:02;;;;;;;;;;;24.50;80.50;;;;;;5076750;28;20297;-72
2022/07/14 01:10:28;;;;;;;;;;;25.00;80.60;;;;;;5077839;28;19967;-73
2022/07/14 01:12:54;;;;;;;;;;;24.60;80.30;;;;;;5094663;28;20369;-74
2022/07/14 01:15:19;;;;;;;;;;;24.80;80.60;;;;;;5076936;28;19931;-74
2022/07/14 01:17:47;;;;;;;;;;;25.00;80.40;;;;;;5095529;28;20357;-73
2022/07/14 01:20:13;;;;;;;;;;;24.60;80.50;;;;;;5095008;28;19931;-72
2022/07/14 01:22:38;;;;;;;;;;;24.40;80.40;;;;;;5094474;28;19998;-72
2022/07/14 01:25:06;;;;;;;;;;;24.70;80.40;;;;;;5077062;28;19924;-71
2022/07/14 01:27:35;;;;;;;;;;;24.80;79.90;;;;;;5094100;28;20313;-73
2022/07/14 01:30:01;;;;;;;;;;;24.70;79.20;;;;;;5094897;28;19952;-72
2022/07/14 01:32:26;;;;;;;;;;;24.70;80.30;;;;;;5095288;28;20347;-73
2022/07/14 01:34:52;;;;;;;;;;;24.60;80.30;;;;;;5095470;28;20282;-71
2022/07/14 01:37:18;;;;;;;;;;;24.90;80.60;;;;;;5094742;28;19920;-72
2022/07/14 01:39:44;;;;;;;;;;;24.50;80.30;;;;;;5077124;28;19920;-71
2022/07/14 01:42:09;;;;;;;;;;;25.00;80.50;;;;;;5094246;28;20007;-73
2022/07/14 01:44:35;;;;;;;;;;;24.40;80.20;;;;;;5063705;28;20336;-72
2022/07/14 01:47:00;;;;;;;;;;;24.70;80.40;;;;;;5092951;28;20347;-72
2022/07/14 01:49:26;;;;;;;;;;;24.50;80.30;;;;;;5095112;28;19927;-73
2022/07/14 01:51:52;;;;;;;;;;;24.50;80.50;;;;;;5094512;28;20281;-72
2022/07/14 01:54:18;;;;;;;;;;;24.60;80.30;;;;;;5094769;28;19927;-72
2022/07/14 01:56:43;;;;;;;;;;;24.40;80.20;;;;;;5094085;28;19966;-72
2022/07/14 01:59:09;;;;;;;;;;;24.20;80.10;;;;;;5093146;28;19942;-72
2022/07/14 02:01:40;;;;;;;;;;;24.50;80.20;;;;;;5084481;28;19934;-70
2022/07/14 02:04:14;;;;;;;;;;;24.50;79.80;;;;;;5093268;28;19989;-73
2022/07/14 02:06:40;;;;;;;;;;;24.60;79.00;;;;;;5093759;28;19927;-73
2022/07/14 02:09:06;;;;;;;;;;;24.40;80.30;;;;;;5075281;28;19931;-73
2022/07/14 02:14:15;;;;;;;;;;;24.50;79.10;;;;;;5094190;28;20081;-72
2022/07/14 02:16:41;;;;;;;;;;;24.50;79.90;;;;;;5075669;28;20022;-66
2022/07/14 02:19:07;;;;;;;;;;;24.40;80.20;;;;;;5091804;28;19927;-72
2022/07/14 02:21:33;;;;;;;;;;;24.40;80.00;;;;;;5094436;28;19927;-72
2022/07/14 02:23:59;;;;;;;;;;;24.40;80.10;;;;;;5072457;28;19920;-72
2022/07/14 02:26:24;;;;;;;;;;;24.20;79.80;;;;;;5090271;28;19924;-68
2022/07/14 02:28:50;;;;;;;;;;;24.40;79.90;;;;;;5093728;28;20277;-73
2022/07/14 02:31:16;;;;;;;;;;;24.40;79.90;;;;;;5093026;28;19920;-73
2022/07/14 02:33:41;;;;;;;;;;;24.60;80.00;;;;;;5094302;28;19920;-73
2022/07/14 02:36:07;;;;;;;;;;;24.50;80.10;;;;;;5072460;28;19920;-72
2022/07/14 02:38:33;;;;;;;;;;;24.40;79.80;;;;;;5092234;28;20380;-73
2022/07/14 02:40:58;;;;;;;;;;;24.40;79.90;;;;;;5093850;28;19920;-72
2022/07/14 02:43:26;;;;;;;;;;;24.10;79.90;;;;;;5093444;28;19924;-73
2022/07/14 02:45:51;;;;;;;;;;;24.50;80.10;;;;;;5074830;28;19924;-71
2022/07/14 02:48:17;;;;;;;;;;;24.20;79.80;;;;;;5093085;28;19972;-69
2022/07/14 02:50:43;;;;;;;;;;;24.40;79.90;;;;;;5075113;28;19920;-73
2022/07/14 02:53:08;;;;;;;;;;;24.60;80.00;;;;;;5093688;28;20373;-72
2022/07/14 02:55:34;;;;;;;;;;;24.40;79.90;;;;;;5093422;28;19930;-72
2022/07/14 02:58:00;;;;;;;;;;;24.40;80.10;;;;;;5093769;28;19920;-73
2022/07/14 03:00:26;;;;;;;;;;;24.20;80.50;;;;;;5092708;28;19927;-72
2022/07/14 03:02:51;;;;;;;;;;;24.30;80.10;;;;;;5075368;28;20440;-72
2022/07/14 03:05:17;;;;;;;;;;;24.20;79.70;;;;;;5093244;28;20014;-73
2022/07/14 03:07:43;;;;;;;;;;;24.40;80.00;;;;;;5092938;28;19971;-73
2022/07/14 03:10:08;;;;;;;;;;;24.00;79.70;;;;;;5093319;28;19927;-73
2022/07/14 03:12:34;;;;;;;;;;;24.10;79.80;;;;;;5075486;28;19969;-70
2022/07/14 03:15:00;;;;;;;;;;;24.30;79.90;;;;;;5093166;28;20377;-72
2022/07/14 03:17:26;;;;;;;;;;;24.20;80.00;;;;;;5073428;28;20498;-72
2022/07/14 03:19:52;;;;;;;;;;;23.90;79.70;;;;;;5058389;28;19920;-73
2022/07/14 03:22:17;;;;;;;;;;;24.20;79.90;;;;;;5057939;28;19920;-73
2022/07/14 03:24:43;;;;;;;;;;;24.30;80.00;;;;;;5075765;28;19928;-72
2022/07/14 03:27:08;;;;;;;;;;;24.20;79.90;;;;;;5071403;28;19920;-72
2022/07/14 03:29:34;;;;;;;;;;;24.30;79.80;;;;;;5073589;28;20008;-73
2022/07/14 03:31:59;;;;;;;;;;;25.50;80.50;;;;;;5070549;28;19920;-75
2022/07/14 03:34:25;;;;;;;;;;;24.10;79.80;;;;;;5071280;28;19966;-75
2022/07/14 03:36:51;;;;;;;;;;;24.30;79.80;;;;;;5072666;28;19931;-72
2022/07/14 03:39:16;;;;;;;;;;;24.20;79.90;;;;;;5072555;28;19921;-73
2022/07/14 03:41:42;;;;;;;;;;;24.30;79.90;;;;;;5072845;28;19921;-73
2022/07/14 03:44:07;;;;;;;;;;;24.20;79.80;;;;;;5073111;28;20377;-73
2022/07/14 03:46:33;;;;;;;;;;;24.30;79.60;;;;;;5073123;28;19916;-71
2022/07/14 03:49:00;;;;;;;;;;;24.40;79.80;;;;;;5072529;28;19927;-72
2022/07/14 03:51:25;;;;;;;;;;;24.00;79.50;;;;;;5072458;28;19920;-72
2022/07/14 03:53:51;;;;;;;;;;;24.00;79.50;;;;;;5070264;28;19974;-73
2022/07/14 03:56:17;;;;;;;;;;;23.90;79.40;;;;;;5073044;28;19920;-73
2022/07/14 03:58:43;;;;;;;;;;;24.10;79.60;;;;;;5070826;28;19985;-73
2022/07/14 04:01:08;;;;;;;;;;;24.20;79.60;;;;;;5072321;28;19927;-72
2022/07/14 04:03:34;;;;;;;;;;;24.00;79.50;;;;;;5072297;28;20401;-73
2022/07/14 04:06:00;;;;;;;;;;;24.90;79.80;;;;;;5071657;28;19920;-72
2022/07/14 04:08:25;;;;;;;;;;;24.20;79.50;;;;;;5071798;28;19921;-71
2022/07/14 04:10:51;;;;;;;;;;;24.10;79.50;;;;;;5072825;28;19920;-72
2022/07/14 04:13:16;;;;;;;;;;;24.00;79.20;;;;;;5071911;28;19939;-72
2022/07/14 04:15:42;;;;;;;;;;;24.10;79.50;;;;;;5072350;28;19927;-72
2022/07/14 04:18:08;;;;;;;;;;;24.30;79.40;;;;;;5072466;28;19927;-72
2022/07/14 04:20:34;;;;;;;;;;;24.40;79.60;;;;;;5072728;28;19920;-71
2022/07/14 04:22:59;;;;;;;;;;;24.20;79.20;;;;;;5071310;28;19920;-73
2022/07/14 04:25:25;;;;;;;;;;;24.40;79.40;;;;;;5072588;28;19927;-71
2022/07/14 04:27:51;;;;;;;;;;;24.50;79.10;;;;;;5092529;28;19920;-72
2022/07/14 04:30:17;;;;;;;;;;;24.20;79.20;;;;;;5094541;28;19924;-61
2022/07/14 04:32:43;;;;;;;;;;;24.50;79.40;;;;;;5094679;28;19924;-61
2022/07/14 04:35:08;;;;;;;;;;;24.10;79.10;;;;;;5096279;28;19967;-73
2022/07/14 04:37:34;;;;;;;;;;;24.30;79.20;;;;;;5096513;28;20288;-72
2022/07/14 04:40:00;;;;;;;;;;;24.30;79.40;;;;;;5077214;28;19920;-67
2022/07/14 04:42:25;;;;;;;;;;;24.20;79.20;;;;;;5095540;28;19971;-73
2022/07/14 04:44:51;;;;;;;;;;;24.40;79.50;;;;;;5095225;28;19920;-73
2022/07/14 04:47:17;;;;;;;;;;;24.50;79.30;;;;;;5096222;28;19920;-73
2022/07/14 04:52:27;;;;;;;;;;;24.30;78.70;;;;;;5094953;28;19927;-72
2022/07/14 04:54:53;;;;;;;;;;;24.60;79.20;;;;;;5078105;28;19919;-73
2022/07/14 04:57:19;;;;;;;;;;;24.40;79.70;;;;;;5077623;28;19927;-73
2022/07/14 04:59:45;;;;;;;;;;;24.60;80.10;;;;;;5060649;28;20408;-73
2022/07/14 05:02:10;;;;;;;;;;;24.50;80.10;;;;;;5094740;28;19920;-73
2022/07/14 05:04:36;;;;;;;;;;;24.50;80.10;;;;;;5095592;28;19920;-72
2022/07/14 05:07:02;;;;;;;;;;;24.50;79.90;;;;;;5094926;28;19920;-73
2022/07/14 05:09:32;;;;;;;;;;;24.70;79.80;;;;;;5060907;28;19966;-73
2022/07/14 05:11:57;;;;;;;;;;;24.90;79.60;;;;;;5079358;28;19971;-73
2022/07/14 05:14:23;;;;;;;;;;;25.00;79.20;;;;;;5095909;28;20402;-73
2022/07/14 05:16:48;;;;;;;;;;;25.20;78.70;;;;;;5093935;28;19928;-71
2022/07/14 05:19:17;;;;;;;;;;;25.50;78.60;;;;;;5078007;28;19924;-73
2022/07/14 05:21:43;;;;;;;;;;;26.00;77.10;;;;;;5082192;28;19924;-73
2022/07/14 05:24:09;;;;;;;;;;;25.70;78.00;;;;;;5095380;28;19927;-73
2022/07/14 05:26:35;;;;;;;;;;;25.90;77.50;;;;;;5060048;28;20289;-73
2022/07/14 05:29:01;;;;;;;;;;;26.30;77.00;;;;;;5095271;28;19924;-73
2022/07/14 05:31:27;;;;;;;;;;;26.30;76.90;;;;;;5094505;28;20031;-72
2022/07/14 05:33:55;;;;;;;;;;;26.50;76.30;;;;;;5078082;28;19988;-73
2022/07/14 05:36:22;;;;;;;;;;;26.30;76.30;;;;;;5094072;28;20395;-73
2022/07/14 05:38:48;;;;;;;;;;;26.40;76.20;;;;;;5095097;28;19920;-72
2022/07/14 05:41:14;;;;;;;;;;;26.90;76.10;;;;;;5092173;28;19930;-73
2022/07/14 05:43:41;;;;;;;;;;;26.60;75.90;;;;;;5095324;28;19973;-73
2022/07/14 05:46:07;;;;;;;;;;;27.00;76.00;;;;;;5095950;28;19919;-73
2022/07/14 05:48:34;;;;;;;;;;;27.00;75.00;;;;;;5092845;28;22138;-72
2022/07/14 05:51:15;;;;;;;;;;;27.10;75.20;;;;;;5094782;28;19927;-73
2022/07/14 05:53:42;;;;;;;;;;;27.10;73.90;;;;;;5094623;28;19920;-73
2022/07/14 05:56:07;;;;;;;;;;;27.00;75.10;;;;;;5076651;28;19927;-73
2022/07/14 05:58:33;;;;;;;;;;;27.30;75.00;;;;;;5093893;28;19919;-71
2022/07/14 06:00:59;;;;;;;;;;;27.30;74.80;;;;;;5093990;28;19919;-73
2022/07/14 06:03:25;;;;;;;;;;;27.50;74.70;;;;;;5075910;28;19920;-73
2022/07/14 06:05:50;;;;;;;;;;;27.50;74.80;;;;;;5076395;28;19919;-73
2022/07/14 06:08:16;;;;;;;;;;;27.20;74.30;;;;;;5066243;28;19920;-72
2022/07/14 06:10:42;;;;;;;;;;;27.40;74.50;;;;;;5091917;28;19942;-73
2022/07/14 06:13:07;;;;;;;;;;;27.70;74.40;;;;;;5093909;28;20366;-71
2022/07/14 06:15:33;;;;;;;;;;;27.60;74.50;;;;;;5093946;28;20414;-74
2022/07/14 06:17:58;;;;;;;;;;;27.50;74.20;;;;;;5093327;28;19920;-74
2022/07/14 06:20:24;;;;;;;;;;;27.80;74.50;;;;;;5089778;28;20077;-73
2022/07/14 06:22:50;;;;;;;;;;;27.60;74.40;;;;;;5092670;28;19920;-74
2022/07/14 06:25:15;;;;;;;;;;;28.00;74.70;;;;;;5094299;28;19920;-65
2022/07/14 06:27:41;;;;;;;;;;;27.70;74.30;;;;;;5084062;28;20377;-62
2022/07/14 06:30:07;;;;;;;;;;;27.70;74.40;;;;;;5057015;28;19924;-62
2022/07/14 06:32:33;;;;;;;;;;;27.80;73.90;;;;;;5073775;28;19920;-62
2022/07/14 06:35:00;;;;;;;;;;;27.80;74.00;;;;;;5076252;28;19920;-73
2022/07/14 06:37:26;;;;;;;;;;;27.90;74.10;;;;;;5095289;28;19920;-73
2022/07/14 06:39:52;;;;;;;;;;;28.00;74.40;;;;;;5094734;28;19927;-74
2022/07/14 06:42:17;;;;;;;;;;;28.00;74.40;;;;;;5092833;28;19920;-64
2022/07/14 06:44:43;;;;;;;;;;;28.10;74.20;;;;;;5094730;28;19920;-64
2022/07/14 06:47:08;;;;;;;;;;;28.10;74.20;;;;;;5094814;28;20373;-72
2022/07/14 06:49:35;;;;;;;;;;;28.30;74.50;;;;;;5094739;28;19920;-65
2022/07/14 06:52:02;;;;;;;;;;;28.20;73.10;;;;;;5092965;28;19927;-66
2022/07/14 06:54:27;;;;;;;;;;;28.10;74.20;;;;;;5076610;28;20297;-72
2022/07/14 06:56:53;;;;;;;;;;;28.00;74.00;;;;;;5092861;28;20305;-71
2022/07/14 06:59:19;;;;;;;;;;;28.30;73.90;;;;;;5094624;28;19965;-69
2022/07/14 07:01:45;;;;;;;;;;;28.00;74.00;;;;;;5086552;28;20277;-70
2022/07/14 07:04:10;;;;;;;;;;;28.40;73.60;;;;;;5056396;28;19920;-72
2022/07/14 07:06:44;;;;;;;;;;;28.50;74.20;;;;;;5063731;28;20020;-73
2022/07/14 07:09:13;;;;;;;;;;;28.30;74.20;;;;;;5094467;28;20271;-71
2022/07/14 07:11:39;;;;;;;;;;;28.40;72.90;;;;;;5094328;28;19924;-72
2022/07/14 07:14:04;;;;;;;;;;;28.10;74.10;;;;;;5093198;28;20298;-72
2022/07/14 07:16:30;;;;;;;;;;;28.40;74.10;;;;;;5092663;28;19920;-73
2022/07/14 07:18:56;;;;;;;;;;;28.60;74.30;;;;;;5092877;28;19927;-62
2022/07/14 07:21:22;;;;;;;;;;;28.20;73.90;;;;;;5087028;28;19920;-66
2022/07/14 07:23:48;;;;;;;;;;;28.40;73.60;;;;;;5073998;28;19920;-73
2022/07/14 07:26:14;;;;;;;;;;;28.40;73.80;;;;;;5091964;28;19935;-69
2022/07/14 07:28:40;;;;;;;;;;;28.40;74.10;;;;;;5076258;28;19924;-69
2022/07/14 07:31:06;;;;;;;;;;;28.60;73.60;;;;;;5094039;28;19999;-63
2022/07/14 07:33:32;;;;;;;;;;;28.60;73.50;;;;;;5091603;28;19927;-73
2022/07/14 07:35:58;;;;;;;;;;;28.40;73.80;;;;;;5082600;28;19972;-72
2022/07/14 07:38:24;;;;;;;;;;;28.80;74.10;;;;;;5089009;28;20014;-72
2022/07/14 07:40:50;;;;;;;;;;;28.70;73.50;;;;;;5093937;28;20364;-73
2022/07/14 07:43:16;;;;;;;;;;;28.80;73.70;;;;;;5075915;28;20396;-72
2022/07/14 07:45:41;;;;;;;;;;;28.70;73.80;;;;;;5093638;28;20273;-72
2022/07/14 07:48:07;;;;;;;;;;;28.60;73.80;;;;;;5089902;28;20073;-72
2022/07/14 07:50:33;;;;;;;;;;;28.70;73.90;;;;;;5092811;28;19927;-72
2022/07/14 07:52:59;;;;;;;;;;;28.80;73.60;;;;;;5074789;28;20011;-65
2022/07/14 07:55:27;;;;;;;;;;;28.50;73.50;;;;;;5058193;28;19974;-71
2022/07/14 07:57:55;;;;;;;;;;;28.30;72.30;;;;;;5089337;28;19927;-62
2022/07/14 08:00:21;;;;;;;;;;;28.40;72.80;;;;;;5091802;28;19971;-62
2022/07/14 08:02:49;;;;;;;;;;;27.90;72.10;;;;;;5093272;28;19942;-62
2022/07/14 08:05:17;;;;;;;;;;;28.10;72.60;;;;;;5097353;28;20427;-70
2022/07/14 08:07:42;;;;;;;;;;;28.10;72.40;;;;;;5078159;28;19924;-72
2022/07/14 08:10:08;;;;;;;;;;;28.00;73.00;;;;;;5097605;28;19920;-72
2022/07/14 08:12:34;;;;;;;;;;;28.00;71.90;;;;;;5096523;28;20406;-71
2022/07/14 08:14:59;;;;;;;;;;;28.00;72.00;;;;;;5097787;28;19965;-66
2022/07/14 08:17:25;;;;;;;;;;;27.90;72.10;;;;;;5097688;28;19965;-72
2022/07/14 08:19:51;;;;;;;;;;;27.60;71.00;;;;;;5096752;28;19915;-62
2022/07/14 08:22:23;;;;;;;;;;;27.70;70.70;;;;;;5093731;28;19920;-67
2022/07/14 08:24:49;;;;;;;;;;;27.40;69.20;;;;;;5095857;28;19980;-64
2022/07/14 08:27:15;;;;;;;;;;;27.50;70.10;;;;;;5096728;28;20015;-72
2022/07/14 08:29:41;;;;;;;;;;;27.40;70.30;;;;;;5095793;28;20011;-72
2022/07/14 08:32:07;;;;;;;;;;;27.60;70.50;;;;;;5079119;28;20288;-62
2022/07/14 08:34:33;;;;;;;;;;;27.50;70.20;;;;;;5096422;28;19920;-62
2022/07/14 08:36:59;;;;;;;;;;;27.50;70.20;;;;;;5097269;28;19919;-61
2022/07/14 08:39:25;;;;;;;;;;;27.40;70.30;;;;;;5096470;28;20297;-62
2022/07/14 08:41:51;;;;;;;;;;;27.60;70.80;;;;;;5096540;28;19920;-62
2022/07/14 08:44:17;;;;;;;;;;;27.30;70.80;;;;;;5096088;28;19946;-61
2022/07/14 08:46:43;;;;;;;;;;;27.00;70.70;;;;;;5097181;28;20379;-61
2022/07/14 08:49:09;;;;;;;;;;;27.30;70.60;;;;;;5096258;28;20015;-64
2022/07/14 08:51:38;;;;;;;;;;;27.30;70.00;;;;;;5075072;28;19920;-62
2022/07/14 08:54:04;;;;;;;;;;;27.40;70.60;;;;;;5078091;28;20018;-62
2022/07/14 08:56:30;;;;;;;;;;;27.20;70.10;;;;;;5097313;28;19967;-62
2022/07/14 08:58:56;;;;;;;;;;;27.50;70.80;;;;;;5078647;28;19927;-73
2022/07/14 09:01:21;;;;;;;;;;;27.50;69.90;;;;;;5075360;28;20369;-73
2022/07/14 09:03:48;;;;;;;;;;;27.30;70.30;;;;;;5095426;28;19927;-70
2022/07/14 09:06:33;;;;;;;;;;;27.30;70.70;;;;;;5078405;28;19924;-70
2022/07/14 09:08:59;;;;;;;;;;;27.40;69.40;;;;;;5078285;28;19927;-72
2022/07/14 09:11:24;;;;;;;;;;;27.20;70.40;;;;;;5094591;28;19920;-70
2022/07/14 09:13:50;;;;;;;;;;;27.20;71.30;;;;;;5095071;28;19920;-62
2022/07/14 09:16:19;;;;;;;;;;;26.90;70.30;;;;;;5094489;28;20054;-62
2022/07/14 09:19:04;;;;;;;;;;;26.90;70.90;;;;;;5096279;28;19999;-62
2022/07/14 09:21:30;;;;;;;;;;;26.90;70.00;;;;;;5096093;28;20381;-69
2022/07/14 09:23:57;;;;;;;;;;;26.90;71.20;;;;;;5075520;28;19920;-69
2022/07/14 09:26:23;;;;;;;;;;;26.90;71.40;;;;;;5095812;28;19930;-74
2022/07/14 09:28:50;;;;;;;;;;;26.80;70.90;;;;;;5095520;28;19942;-71
2022/07/14 09:31:21;;;;;;;;;;;26.80;71.80;;;;;;5088853;28;19930;-72
2022/07/14 09:33:48;;;;;;;;;;;26.70;70.00;;;;;;5077041;28;19994;-72
2022/07/14 09:36:21;;;;;;;;;;;27.00;71.70;;;;;;5095904;28;19963;-68
2022/07/14 09:38:47;;;;;;;;;;;26.70;70.20;;;;;;5078113;28;19927;-63
2022/07/14 09:41:12;;;;;;;;;;;27.10;71.10;;;;;;5095524;28;19920;-69
2022/07/14 09:43:38;;;;;;;;;;;27.00;71.40;;;;;;5074720;28;20018;-73
2022/07/14 09:46:04;;;;;;;;;;;26.90;71.10;;;;;;5096001;28;19931;-69
2022/07/14 09:48:30;;;;;;;;;;;27.00;71.70;;;;;;5094479;28;20014;-71
2022/07/14 09:51:02;;;;;;;;;;;26.90;71.60;;;;;;5076790;28;19967;-71
2022/07/14 09:53:29;;;;;;;;;;;26.80;72.20;;;;;;5083788;28;19926;-72
2022/07/14 09:55:56;;;;;;;;;;;26.80;71.80;;;;;;5073691;28;19946;-62
2022/07/14 09:58:24;;;;;;;;;;;27.00;70.70;;;;;;5095329;28;19924;-61
2022/07/14 10:00:55;;;;;;;;;;;26.90;70.30;;;;;;5095168;28;19982;-62
2022/07/14 10:03:21;;;;;;;;;;;26.90;70.30;;;;;;5094527;28;20010;-71
2022/07/14 10:05:48;;;;;;;;;;;26.70;71.20;;;;;;5092785;28;19966;-71
2022/07/14 10:08:14;;;;;;;;;;;27.00;71.90;;;;;;5095148;28;19931;-70
2022/07/14 10:10:41;;;;;;;;;;;26.80;72.30;;;;;;5077214;28;20337;-72
2022/07/14 10:13:08;;;;;;;;;;;26.70;71.50;;;;;;5093961;28;19998;-73
2022/07/14 10:15:34;;;;;;;;;;;27.00;71.50;;;;;;5092805;28;19920;-62
2022/07/14 10:18:01;;;;;;;;;;;27.10;71.30;;;;;;5094231;28;19927;-61
2022/07/14 10:20:27;;;;;;;;;;;26.70;71.40;;;;;;5059301;28;20329;-62
2022/07/14 10:22:54;;;;;;;;;;;26.80;70.90;;;;;;5094162;28;20015;-62
2022/07/14 10:25:19;;;;;;;;;;;26.90;71.90;;;;;;5076175;28;19942;-62
2022/07/14 10:27:46;;;;;;;;;;;27.00;71.10;;;;;;5056422;28;19921;-62
2022/07/14 10:30:11;;;;;;;;;;;26.90;71.50;;;;;;5053790;28;19927;-62
2022/07/14 10:32:40;;;;;;;;;;;27.10;71.20;;;;;;5053621;28;20289;-71
2022/07/14 10:35:21;;;;;;;;;;;27.00;70.10;;;;;;5054858;28;19974;-73
2022/07/14 10:38:05;;;;;;;;;;;27.00;70.30;;;;;;5063771;28;20316;-62
2022/07/14 10:40:40;;;;;;;;;;;26.70;70.30;;;;;;5069760;28;19927;-63
2022/07/14 10:43:10;;;;;;;;;;;27.00;70.30;;;;;;5073424;28;19928;-70
2022/07/14 10:45:45;;;;;;;;;;;27.00;70.60;;;;;;5073421;28;20297;-72
2022/07/14 10:48:25;;;;;;;;;;;26.70;71.20;;;;;;5067638;28;19929;-62
2022/07/14 10:50:57;;;;;;;;;;;26.90;71.70;;;;;;5070258;28;19920;-61
2022/07/14 10:53:23;;;;;;;;;;;26.70;71.80;;;;;;5071341;28;20010;-61
2022/07/14 10:55:48;;;;;;;;;;;27.10;72.20;;;;;;5071837;28;20042;-62
2022/07/14 10:58:17;;;;;;;;;;;26.70;72.00;;;;;;5072223;28;20391;-72
2022/07/14 11:00:55;;;;;;;;;;;26.90;71.00;;;;;;5073536;28;20365;-73
2022/07/14 11:03:21;;;;;;;;;;;27.00;71.30;;;;;;5061137;28;20053;-72
2022/07/14 11:06:07;;;;;;;;;;;26.80;72.50;;;;;;5067661;28;19921;-72
2022/07/14 11:08:33;;;;;;;;;;;26.80;71.10;;;;;;5074290;28;19982;-72
2022/07/14 11:10:59;;;;;;;;;;;27.00;72.50;;;;;;5073389;28;19925;-72
2022/07/14 11:13:25;;;;;;;;;;;26.80;72.30;;;;;;5066182;28;20294;-63
2022/07/14 11:15:52;;;;;;;;;;;27.10;72.10;;;;;;5061980;28;19924;-65
2022/07/14 11:18:17;;;;;;;;;;;27.10;72.20;;;;;;5066785;28;20431;-63
2022/07/14 11:20:46;;;;;;;;;;;26.80;71.50;;;;;;5059008;28;19924;-72
2022/07/14 11:23:16;;;;;;;;;;;26.80;70.70;;;;;;5066415;28;19974;-69
2022/07/14 11:25:41;;;;;;;;;;;26.80;70.60;;;;;;5054814;28;19959;-62
2022/07/14 11:28:18;;;;;;;;;;;26.70;71.70;;;;;;5073216;28;20001;-62
2022/07/14 11:30:44;;;;;;;;;;;26.80;72.30;;;;;;5084356;28;20393;-72
2022/07/14 11:33:10;;;;;;;;;;;26.80;72.10;;;;;;5074185;28;19926;-68
2022/07/14 11:38:26;;;;;;;;;;;26.70;70.90;;;;;;5092952;28;19926;-64
2022/07/14 11:40:52;;;;;;;;;;;26.60;72.10;;;;;;5072163;28;19921;-63
2022/07/14 11:43:30;;;;;;;;;;;26.60;73.00;;;;;;5094042;28;20288;-64
2022/07/14 11:45:56;;;;;;;;;;;26.70;71.70;;;;;;5093099;28;19946;-61
2022/07/14 11:48:23;;;;;;;;;;;26.80;72.90;;;;;;5092925;28;20430;-73
2022/07/14 11:50:49;;;;;;;;;;;26.70;73.00;;;;;;5089970;28;19920;-62
2022/07/14 11:53:18;;;;;;;;;;;26.70;72.80;;;;;;5073718;28;20006;-61
2022/07/14 11:55:44;;;;;;;;;;;26.60;72.70;;;;;;5093967;28;19975;-61
2022/07/14 11:58:10;;;;;;;;;;;26.80;72.80;;;;;;5086951;28;19924;-73
2022/07/14 12:00:37;;;;;;;;;;;26.90;72.90;;;;;;5092251;28;19927;-69
2022/07/14 12:03:04;;;;;;;;;;;27.00;73.40;;;;;;5074932;28;20277;-63
2022/07/14 12:05:30;;;;;;;;;;;27.00;73.40;;;;;;5093126;28;20266;-63
2022/07/14 12:07:56;;;;;;;;;;;27.10;73.10;;;;;;5092744;28;19920;-62
2022/07/14 12:10:38;;;;;;;;;;;26.80;72.90;;;;;;5093869;28;19928;-64
2022/07/14 12:13:04;;;;;;;;;;;26.60;72.60;;;;;;5084663;28;20438;-62
2022/07/14 12:15:30;;;;;;;;;;;26.90;73.00;;;;;;5073316;28;19921;-62
2022/07/14 12:17:55;;;;;;;;;;;27.10;72.70;;;;;;5073462;28;19973;-62
2022/07/14 12:20:21;;;;;;;;;;;26.80;72.50;;;;;;5056885;28;20286;-61
2022/07/14 12:22:50;;;;;;;;;;;26.80;72.30;;;;;;5055512;28;20074;-62
2022/07/14 12:25:32;;;;;;;;;;;26.70;72.30;;;;;;5092271;28;19920;-62
2022/07/14 12:27:58;;;;;;;;;;;26.80;71.20;;;;;;5093243;28;19967;-61
2022/07/14 12:30:24;;;;;;;;;;;26.80;72.70;;;;;;5092690;28;19927;-61
2022/07/14 12:32:51;;;;;;;;;;;26.90;72.60;;;;;;5082906;28;20282;-63
2022/07/14 12:35:17;;;;;;;;;;;26.80;72.80;;;;;;5087740;28;20348;-63
2022/07/14 12:37:43;;;;;;;;;;;27.00;72.40;;;;;;5088964;28;19946;-62
2022/07/14 12:40:11;;;;;;;;;;;26.70;72.70;;;;;;5091135;28;19924;-62
2022/07/14 12:42:37;;;;;;;;;;;26.70;72.20;;;;;;5093518;28;19920;-63
2022/07/14 12:45:04;;;;;;;;;;;27.10;73.00;;;;;;5091414;28;19942;-64
2022/07/14 12:47:29;;;;;;;;;;;26.80;72.30;;;;;;5093526;28;20331;-63
2022/07/14 12:49:55;;;;;;;;;;;26.50;72.30;;;;;;5094939;28;19965;-62
2022/07/14 12:52:21;;;;;;;;;;;26.60;73.00;;;;;;5097099;28;19919;-62
2022/07/14 12:54:46;;;;;;;;;;;27.00;73.50;;;;;;5096982;28;19943;-61
2022/07/14 12:57:21;;;;;;;;;;;26.90;73.20;;;;;;5077823;28;19916;-61
2022/07/14 12:59:47;;;;;;;;;;;26.70;72.00;;;;;;5096880;28;19920;-62
2022/07/14 13:02:18;;;;;;;;;;;26.70;73.10;;;;;;5096721;28;19919;-63
2022/07/14 13:04:45;;;;;;;;;;;26.90;73.50;;;;;;5097364;28;19924;-62
2022/07/14 13:07:16;;;;;;;;;;;26.70;73.10;;;;;;5095245;28;19920;-62
2022/07/14 13:10:00;;;;;;;;;;;26.60;71.90;;;;;;5078721;28;20293;-64
2022/07/14 13:12:27;;;;;;;;;;;26.70;71.50;;;;;;5096540;28;19919;-61
2022/07/14 13:14:56;;;;;;;;;;;26.70;72.60;;;;;;5096550;28;19989;-62
2022/07/14 13:17:40;;;;;;;;;;;27.00;71.50;;;;;;5096286;28;19966;-62
2022/07/14 13:20:26;;;;;;;;;;;26.60;71.30;;;;;;5096498;28;19943;-62
2022/07/14 13:22:58;;;;;;;;;;;26.80;72.60;;;;;;5095044;28;19920;-62
2022/07/14 13:25:24;;;;;;;;;;;26.80;71.00;;;;;;5096499;28;19924;-62
2022/07/14 13:27:49;;;;;;;;;;;26.60;71.70;;;;;;5077907;28;19920;-63
2022/07/14 13:30:15;;;;;;;;;;;26.90;71.90;;;;;;5096339;28;19924;-63
2022/07/14 13:32:41;;;;;;;;;;;26.90;72.00;;;;;;5074534;28;19923;-63
2022/07/14 13:35:06;;;;;;;;;;;26.70;71.80;;;;;;5096045;28;19927;-63
2022/07/14 13:37:32;;;;;;;;;;;26.90;72.40;;;;;;5077498;28;19920;-63
2022/07/14 13:39:58;;;;;;;;;;;26.50;72.30;;;;;;5077463;28;20396;-63
2022/07/14 13:42:24;;;;;;;;;;;26.70;72.40;;;;;;5094565;28;19931;-63
2022/07/14 13:44:50;;;;;;;;;;;26.80;73.70;;;;;;5095739;28;20432;-63
2022/07/14 13:47:16;;;;;;;;;;;26.60;74.00;;;;;;5077886;28;20057;-63
2022/07/14 13:52:25;;;;;;;;;;;26.50;72.60;;;;;;5094150;28;19927;-63
2022/07/14 13:54:51;;;;;;;;;;;26.40;73.20;;;;;;5076515;28;19920;-63
2022/07/14 13:57:17;;;;;;;;;;;26.50;73.20;;;;;;5077767;28;20024;-63
2022/07/14 13:59:42;;;;;;;;;;;26.40;72.70;;;;;;5094788;28;20287;-62
2022/07/14 14:02:08;;;;;;;;;;;26.50;73.00;;;;;;5094578;28;19927;-62
2022/07/14 14:04:34;;;;;;;;;;;26.20;72.20;;;;;;5094656;28;19919;-62
2022/07/14 14:06:59;;;;;;;;;;;26.30;73.20;;;;;;5095459;28;19973;-62
2022/07/14 14:09:27;;;;;;;;;;;26.30;73.10;;;;;;5095244;28;20377;-62
2022/07/14 14:11:53;;;;;;;;;;;26.50;73.80;;;;;;5095489;28;20347;-63
2022/07/14 14:14:19;;;;;;;;;;;25.80;72.70;;;;;;5094084;28;19919;-62
2022/07/14 14:16:44;;;;;;;;;;;26.20;73.40;;;;;;5095094;28;20285;-63
2022/07/14 14:19:10;;;;;;;;;;;26.30;73.20;;;;;;5095371;28;19920;-62
2022/07/14 14:21:36;;;;;;;;;;;26.10;73.90;;;;;;5095567;28;20430;-62
2022/07/14 14:24:02;;;;;;;;;;;26.30;74.40;;;;;;5095136;28;20293;-62